createdAt,value
2023-03-26T00:01:39.880Z,96555.95
2023-03-26T00:04:08.754Z,96556.08
2023-03-26T00:06:40.141Z,96555.49
2023-03-26T00:09:12.424Z,96552.70
2023-03-26T00:11:40.166Z,96550.12
2023-03-26T00:14:13.219Z,96559.50
2023-03-26T00:16:42.420Z,96555.82
2023-03-26T00:19:12.196Z,96555.70
2023-03-26T00:21:40.995Z,96554.27
2023-03-26T00:24:14.194Z,96557.72
2023-03-26T00:26:42.348Z,96555.61
2023-03-26T00:29:12.128Z,96552.67
2023-03-26T00:31:40.548Z,96552.36
2023-03-26T00:34:10.056Z,96557.59
2023-03-26T00:36:37.672Z,96553.26
2023-03-26T00:39:05.801Z,96549.01
2023-03-26T00:41:35.950Z,96554.39
2023-03-26T00:44:03.804Z,96560.08
2023-03-26T00:46:31.744Z,96559.10
2023-03-26T00:49:02.832Z,96563.45
2023-03-26T00:51:32.869Z,96564.91
2023-03-26T00:54:01.105Z,96573.86
2023-03-26T00:56:28.902Z,96576.22
2023-03-26T00:58:57.226Z,96581.23
2023-03-26T01:01:28.449Z,96580.92
2023-03-26T01:06:33.824Z,96574.22
2023-03-26T01:09:20.788Z,96568.28
2023-03-26T01:11:49.651Z,96569.06
2023-03-26T01:14:23.250Z,96576.20
2023-03-26T01:16:55.314Z,96576.45
2023-03-26T01:19:46.804Z,96574.54
2023-03-26T01:22:18.945Z,96580.34
2023-03-26T01:24:48.982Z,96577.66
2023-03-26T01:27:50.336Z,96573.77
2023-03-26T01:30:41.742Z,96572.73
2023-03-26T01:33:38.774Z,96570.97
2023-03-26T01:36:21.102Z,96575.88
2023-03-26T01:39:15.917Z,96578.13
2023-03-26T01:42:04.942Z,96579.47
2023-03-26T01:44:40.981Z,96579.78
2023-03-26T01:47:12.106Z,96584.58
2023-03-26T01:49:40.015Z,96582.25
2023-03-26T01:52:19.096Z,96583.12
2023-03-26T01:54:47.166Z,96582.34
2023-03-26T01:57:29.593Z,96597.11
2023-03-26T02:00:25.700Z,96592.86
2023-03-26T02:03:02.793Z,96601.47
2023-03-26T02:05:45.901Z,96604.26
2023-03-26T02:08:35.832Z,96603.80
2023-03-26T02:11:11.496Z,96604.14
2023-03-26T02:13:42.836Z,96617.09
2023-03-26T02:16:15.788Z,96619.99
2023-03-26T02:18:45.708Z,96623.68
2023-03-26T02:21:19.728Z,96620.88
2023-03-26T02:24:03.739Z,96626.24
2023-03-26T02:26:37.200Z,96625.78
2023-03-26T02:29:09.457Z,96626.66
2023-03-26T02:31:37.726Z,96628.90
2023-03-26T02:34:05.515Z,96633.02
2023-03-26T02:36:35.443Z,96637.38
2023-03-26T02:39:04.593Z,96633.67
2023-03-26T02:41:36.533Z,96636.70
2023-03-26T02:44:06.451Z,96634.11
2023-03-26T02:46:38.734Z,96638.54
2023-03-26T02:49:14.478Z,96643.44
2023-03-26T02:51:43.007Z,96648.36
2023-03-26T02:54:12.465Z,96652.47
2023-03-26T02:56:42.890Z,96644.52
2023-03-26T02:59:15.371Z,96649.66
2023-03-26T03:01:43.898Z,96650.53
2023-03-26T03:04:13.265Z,96656.45
2023-03-26T03:06:41.571Z,96654.68
2023-03-26T03:09:09.311Z,96658.14
2023-03-26T03:11:38.694Z,96658.32
2023-03-26T03:14:07.019Z,96656.64
2023-03-26T03:16:34.980Z,96649.59
2023-03-26T03:19:10.702Z,96656.94
2023-03-26T03:21:40.452Z,96649.51
2023-03-26T03:24:09.090Z,96651.70
2023-03-26T03:26:40.852Z,96658.05
2023-03-26T03:29:16.203Z,96656.58
2023-03-26T03:31:44.563Z,96656.31
2023-03-26T03:34:14.074Z,96658.61
2023-03-26T03:36:45.465Z,96654.31
2023-03-26T03:39:15.688Z,96653.96
2023-03-26T03:41:44.505Z,96654.13
2023-03-26T03:44:14.019Z,96643.40
2023-03-26T03:46:41.709Z,96649.81
2023-03-26T03:49:09.416Z,96654.41
2023-03-26T03:51:38.455Z,96657.03
2023-03-26T03:54:08.128Z,96660.20
2023-03-26T03:56:46.751Z,96663.08
2023-03-26T03:59:17.082Z,96660.03
2023-03-26T04:01:47.951Z,96664.54
2023-03-26T04:04:17.926Z,96669.27
2023-03-26T04:06:53.439Z,96660.17
2023-03-26T04:09:21.745Z,96659.88
2023-03-26T04:11:50.526Z,96658.47
2023-03-26T04:14:29.298Z,96666.42
2023-03-26T04:17:01.682Z,96665.56
2023-03-26T04:19:30.724Z,96667.08
2023-03-26T04:22:00.113Z,96668.04
2023-03-26T04:24:30.184Z,96666.41
2023-03-26T04:27:16.575Z,96664.98
2023-03-26T04:29:49.286Z,96672.14
2023-03-26T04:32:30.227Z,96667.27
2023-03-26T04:34:59.741Z,96672.52
2023-03-26T04:40:20.030Z,96677.81
2023-03-26T04:43:05.954Z,96681.66
2023-03-26T04:45:52.671Z,96682.58
2023-03-26T04:48:21.567Z,96688.55
2023-03-26T04:50:49.855Z,96692.09
2023-03-26T04:53:23.773Z,96694.77
2023-03-26T04:56:25.405Z,96692.09
2023-03-26T04:59:01.948Z,96697.98
2023-03-26T05:01:31.654Z,96704.44
2023-03-26T05:03:59.540Z,96714.59
2023-03-26T05:06:28.212Z,96710.16
2023-03-26T05:08:56.739Z,96713.36
2023-03-26T05:11:32.473Z,96707.30
2023-03-26T05:14:00.506Z,96716.66
2023-03-26T05:16:29.579Z,96715.30
2023-03-26T05:18:59.214Z,96711.78
2023-03-26T05:21:28.905Z,96715.58
2023-03-26T05:23:56.612Z,96713.17
2023-03-26T05:26:25.602Z,96709.49
2023-03-26T05:28:53.228Z,96715.14
2023-03-26T05:31:23.175Z,96710.58
2023-03-26T05:33:54.416Z,96712.39
2023-03-26T05:36:24.537Z,96710.41
2023-03-26T05:39:05.895Z,96711.05
2023-03-26T05:41:47.348Z,96707.70
2023-03-26T05:44:15.136Z,96710.88
2023-03-26T05:46:43.014Z,96710.26
2023-03-26T05:49:11.771Z,96710.46
2023-03-26T05:51:39.693Z,96715.42
2023-03-26T05:54:15.088Z,96713.44
2023-03-26T05:56:47.915Z,96715.07
2023-03-26T05:59:36.157Z,96717.95
2023-03-26T06:02:23.343Z,96718.41
2023-03-26T06:05:12.155Z,96717.59
2023-03-26T06:07:54.072Z,96718.13
2023-03-26T06:10:22.526Z,96728.09
2023-03-26T06:12:50.365Z,96732.54
2023-03-26T06:15:18.303Z,96726.46
2023-03-26T06:17:50.721Z,96733.16
2023-03-26T06:20:20.631Z,96734.28
2023-03-26T06:22:50.335Z,96733.86
2023-03-26T06:25:22.472Z,96737.14
2023-03-26T06:27:55.076Z,96737.22
2023-03-26T06:30:42.061Z,96732.02
2023-03-26T06:33:29.727Z,96743.93
2023-03-26T06:35:59.453Z,96747.15
2023-03-26T06:38:27.461Z,96750.21
2023-03-26T06:41:04.976Z,96742.84
2023-03-26T06:43:40.179Z,96741.88
2023-03-26T06:46:10.680Z,96740.64
2023-03-26T06:48:59.068Z,96738.52
2023-03-26T06:51:46.221Z,96743.80
2023-03-26T06:54:18.904Z,96737.94
2023-03-26T06:56:58.457Z,96741.11
2023-03-26T06:59:44.395Z,96744.34
2023-03-26T07:02:30.645Z,96746.30
2023-03-26T07:05:17.450Z,96753.77
2023-03-26T07:08:03.977Z,96754.66
2023-03-26T07:10:50.260Z,96754.91
2023-03-26T07:13:32.399Z,96754.37
2023-03-26T07:16:01.981Z,96749.09
2023-03-26T07:18:31.509Z,96752.13
2023-03-26T07:21:00.520Z,96747.78
2023-03-26T07:23:30.722Z,96745.83
2023-03-26T07:26:14.770Z,96738.95
2023-03-26T07:29:04.476Z,96733.98
2023-03-26T07:31:51.210Z,96729.56
2023-03-26T07:34:45.687Z,96736.05
2023-03-26T07:37:36.123Z,96742.38
2023-03-26T07:40:33.689Z,96735.12
2023-03-26T07:43:08.772Z,96734.69
2023-03-26T07:45:56.945Z,96732.64
2023-03-26T07:48:43.146Z,96729.25
2023-03-26T07:51:14.191Z,96724.58
2023-03-26T07:53:50.505Z,96728.34
2023-03-26T07:56:55.852Z,96724.91
2023-03-26T08:00:00.403Z,96724.31
2023-03-26T08:03:18.657Z,96719.38
2023-03-26T08:06:30.033Z,96722.02
2023-03-26T08:09:31.561Z,96714.44
2023-03-26T08:12:36.839Z,96722.67
2023-03-26T08:15:33.532Z,96725.22
2023-03-26T08:18:35.178Z,96726.80
2023-03-26T08:21:10.774Z,96726.11
2023-03-26T08:24:15.983Z,96727.11
2023-03-26T08:27:12.116Z,96724.28
2023-03-26T08:30:02.601Z,96726.02
2023-03-26T08:32:33.127Z,96726.88
2023-03-26T08:35:00.726Z,96729.75
2023-03-26T08:37:28.751Z,96726.69
2023-03-26T08:39:57.041Z,96721.50
2023-03-26T08:43:00.473Z,96722.50
2023-03-26T08:45:50.612Z,96722.63
2023-03-26T08:48:49.296Z,96724.41
2023-03-26T08:51:51.263Z,96723.15
2023-03-26T08:54:56.187Z,96722.81
2023-03-26T08:58:16.768Z,96729.91
2023-03-26T09:01:26.608Z,96735.06
2023-03-26T09:04:46.269Z,96730.52
2023-03-26T09:07:39.984Z,96735.64
2023-03-26T09:10:28.458Z,96732.39
2023-03-26T09:13:26.155Z,96737.09
2023-03-26T09:16:26.837Z,96736.20
2023-03-26T09:19:24.119Z,96742.62
2023-03-26T09:22:16.079Z,96738.03
2023-03-26T09:25:10.042Z,96742.87
2023-03-26T09:28:12.330Z,96743.03
2023-03-26T09:31:00.781Z,96736.18
2023-03-26T09:33:53.348Z,96737.50
2023-03-26T09:36:47.902Z,96731.16
2023-03-26T09:39:52.653Z,96716.47
2023-03-26T09:42:56.484Z,96717.27
2023-03-26T09:45:38.031Z,96732.40
2023-03-26T09:51:34.035Z,96727.93
2023-03-26T09:54:51.178Z,96733.66
2023-03-26T09:58:03.373Z,96727.82
2023-03-26T10:00:48.690Z,96714.80
2023-03-26T10:04:12.382Z,96724.53
2023-03-26T10:06:48.360Z,96725.17
2023-03-26T10:09:40.365Z,96723.28
2023-03-26T10:12:22.557Z,96725.83
2023-03-26T10:15:33.298Z,96726.26
2023-03-26T10:18:28.108Z,96720.77
2023-03-26T10:21:05.141Z,96727.59
2023-03-26T10:24:13.797Z,96723.37
2023-03-26T10:27:09.033Z,96721.28
2023-03-26T10:29:52.954Z,96715.97
2023-03-26T10:32:39.027Z,96707.34
2023-03-26T10:35:29.446Z,96706.78
2023-03-26T10:38:36.366Z,96713.35
2023-03-26T10:41:17.211Z,96709.69
2023-03-26T10:44:22.432Z,96701.58
2023-03-26T10:47:04.108Z,96704.17
2023-03-26T10:50:03.290Z,96704.47
2023-03-26T10:52:57.912Z,96706.60
2023-03-26T10:55:40.397Z,96715.50
2023-03-26T10:58:16.507Z,96715.48
2023-03-26T11:00:49.578Z,96710.23
2023-03-26T11:03:54.306Z,96716.80
2023-03-26T11:06:40.974Z,96712.24
2023-03-26T11:09:23.889Z,96704.42
2023-03-26T11:12:26.288Z,96704.05
2023-03-26T11:15:27.923Z,96698.14
2023-03-26T11:18:35.115Z,96696.12
2023-03-26T11:21:36.113Z,96694.06
2023-03-26T11:24:39.962Z,96692.43
2023-03-26T11:27:26.552Z,96682.59
2023-03-26T11:30:19.779Z,96687.27
2023-03-26T11:32:55.323Z,96684.58
2023-03-26T11:35:41.081Z,96690.98
2023-03-26T11:38:14.003Z,96687.05
2023-03-26T11:40:49.263Z,96682.92
2023-03-26T11:43:24.535Z,96681.77
2023-03-26T11:45:53.569Z,96688.80
2023-03-26T11:48:29.952Z,96688.09
2023-03-26T11:51:06.821Z,96685.46
2023-03-26T11:53:39.617Z,96677.42
2023-03-26T11:56:15.554Z,96682.81
2023-03-26T11:59:16.917Z,96684.78
2023-03-26T12:01:58.207Z,96677.95
2023-03-26T12:04:40.614Z,96681.43
2023-03-26T12:07:33.014Z,96672.88
2023-03-26T12:10:18.179Z,96678.77
2023-03-26T12:12:40.872Z,96676.36
2023-03-26T12:15:19.110Z,96674.07
2023-03-26T12:17:55.809Z,96669.03
2023-03-26T12:20:33.003Z,96659.06
2023-03-26T12:23:06.207Z,96662.35
2023-03-26T12:25:38.712Z,96658.98
2023-03-26T12:28:19.399Z,96655.57
2023-03-26T12:31:03.465Z,96652.13
2023-03-26T12:33:34.204Z,96652.56
2023-03-26T12:36:24.197Z,96642.93
2023-03-26T12:39:16.748Z,96639.27
2023-03-26T12:43:19.841Z,96638.88
2023-03-26T12:44:55.667Z,96630.62
2023-03-26T12:47:59.993Z,96633.08
2023-03-26T12:49:55.847Z,96632.55
2023-03-26T12:53:02.110Z,96636.81
2023-03-26T12:55:41.752Z,96628.81
2023-03-26T12:58:20.890Z,96629.70
2023-03-26T13:01:06.202Z,96624.98
2023-03-26T13:03:50.575Z,96623.94
2023-03-26T13:07:01.971Z,96616.85
2023-03-26T13:09:47.406Z,96614.80
2023-03-26T13:12:33.683Z,96611.50
2023-03-26T13:15:32.597Z,96610.98
2023-03-26T13:18:43.968Z,96601.63
2023-03-26T13:21:19.906Z,96614.13
2023-03-26T13:24:11.072Z,96602.85
2023-03-26T13:26:55.898Z,96599.92
2023-03-26T13:29:56.078Z,96587.39
2023-03-26T13:32:38.198Z,96583.24
2023-03-26T13:35:37.454Z,96571.25
2023-03-26T13:38:25.495Z,96573.18
2023-03-26T13:41:05.080Z,96577.58
2023-03-26T13:43:44.513Z,96566.30
2023-03-26T13:46:35.383Z,96561.78
2023-03-26T13:49:13.154Z,96565.95
2023-03-26T13:51:57.957Z,96564.17
2023-03-26T13:54:33.888Z,96561.95
2023-03-26T13:57:13.274Z,96557.59
2023-03-26T14:00:01.536Z,96555.32
2023-03-26T14:02:59.083Z,96563.95
2023-03-26T14:05:41.301Z,96559.49
2023-03-26T14:08:23.802Z,96560.12
2023-03-26T14:11:18.272Z,96548.78
2023-03-26T14:14:13.757Z,96550.19
2023-03-26T14:16:49.252Z,96549.61
2023-03-26T14:19:37.129Z,96551.92
2023-03-26T14:22:33.261Z,96558.36
2023-03-26T14:25:16.398Z,96550.80
2023-03-26T14:28:07.804Z,96549.41
2023-03-26T14:30:55.139Z,96548.28
2023-03-26T14:34:04.359Z,96547.09
2023-03-26T14:37:04.377Z,96542.83
2023-03-26T14:40:09.865Z,96532.91
2023-03-26T14:43:07.628Z,96525.17
2023-03-26T14:45:43.505Z,96523.28
2023-03-26T14:49:04.021Z,96521.20
2023-03-26T14:52:15.491Z,96514.35
2023-03-26T14:54:52.055Z,96511.69
2023-03-26T14:57:25.349Z,96510.37
2023-03-26T15:00:38.358Z,96502.69
2023-03-26T15:03:28.326Z,96498.78
2023-03-26T15:06:09.891Z,96499.56
2023-03-26T15:09:02.658Z,96502.87
2023-03-26T15:11:55.580Z,96502.13
2023-03-26T15:14:53.352Z,96492.53
2023-03-26T15:17:43.194Z,96492.87
2023-03-26T15:20:43.256Z,96495.72
2023-03-26T15:23:42.576Z,96488.01
2023-03-26T15:26:46.494Z,96489.02
2023-03-26T15:29:55.038Z,96485.27
2023-03-26T15:33:16.173Z,96486.56
2023-03-26T15:36:25.859Z,96486.80
2023-03-26T15:39:18.997Z,96489.48
2023-03-26T15:42:14.981Z,96487.11
2023-03-26T15:44:54.121Z,96484.75
2023-03-26T15:47:51.899Z,96482.83
2023-03-26T15:50:57.782Z,96483.58
2023-03-26T15:53:53.728Z,96481.95
2023-03-26T15:57:00.397Z,96483.10
2023-03-26T15:59:42.668Z,96487.48
2023-03-26T16:02:27.430Z,96492.91
2023-03-26T16:05:33.829Z,96497.05
2023-03-26T16:08:23.394Z,96499.06
2023-03-26T16:10:55.597Z,96494.13
2023-03-26T16:13:38.130Z,96491.66
2023-03-26T16:16:22.510Z,96495.82
2023-03-26T16:19:20.685Z,96501.30
2023-03-26T16:22:09.412Z,96498.82
2023-03-26T16:24:45.963Z,96495.59
2023-03-26T16:27:28.260Z,96496.62
2023-03-26T16:30:08.366Z,96502.86
2023-03-26T16:32:55.560Z,96503.70
2023-03-26T16:35:48.359Z,96499.97
2023-03-26T16:38:18.639Z,96503.81
2023-03-26T16:41:06.879Z,96498.69
2023-03-26T16:44:04.890Z,96495.72
2023-03-26T16:47:10.024Z,96496.00
2023-03-26T16:50:18.208Z,96491.65
2023-03-26T16:53:12.975Z,96491.95
2023-03-26T16:56:20.631Z,96492.15
2023-03-26T16:58:57.782Z,96491.80
2023-03-26T17:01:48.419Z,96486.53
2023-03-26T17:04:25.200Z,96487.16
2023-03-26T17:07:08.529Z,96493.98
2023-03-26T17:09:53.861Z,96492.61
2023-03-26T17:13:01.015Z,96490.75
2023-03-26T17:15:49.389Z,96495.45
2023-03-26T17:21:57.110Z,96500.34
2023-03-26T17:24:52.916Z,96502.91
2023-03-26T17:28:17.569Z,96512.06
2023-03-26T17:31:25.885Z,96517.66
2023-03-26T17:33:54.009Z,96522.19
2023-03-26T17:36:42.016Z,96527.27
2023-03-26T17:39:49.022Z,96533.02
2023-03-26T17:42:32.481Z,96526.91
2023-03-26T17:45:21.588Z,96533.45
2023-03-26T17:48:16.988Z,96537.95
2023-03-26T17:50:55.501Z,96539.66
2023-03-26T17:53:32.676Z,96539.67
2023-03-26T17:56:05.140Z,96547.06
2023-03-26T17:58:44.004Z,96554.13
2023-03-26T18:01:29.470Z,96551.23
2023-03-26T18:04:02.083Z,96554.23
2023-03-26T18:06:47.395Z,96558.41
2023-03-26T18:10:14.180Z,96553.92
2023-03-26T18:13:09.988Z,96555.37
2023-03-26T18:15:48.713Z,96558.30
2023-03-26T18:18:27.957Z,96556.85
2023-03-26T18:21:03.499Z,96557.73
2023-03-26T18:23:43.408Z,96559.33
2023-03-26T18:26:40.574Z,96564.83
2023-03-26T18:29:19.109Z,96567.28
2023-03-26T18:31:51.709Z,96569.06
2023-03-26T18:34:23.813Z,96567.92
2023-03-26T18:37:05.942Z,96571.52
2023-03-26T18:39:33.744Z,96566.25
2023-03-26T18:42:01.731Z,96558.88
2023-03-26T18:44:32.448Z,96556.19
2023-03-26T18:47:09.220Z,96554.53
2023-03-26T18:49:37.391Z,96549.84
2023-03-26T18:52:06.130Z,96552.39
2023-03-26T18:54:38.058Z,96545.93
2023-03-26T18:57:25.701Z,96542.13
2023-03-26T19:00:00.479Z,96541.21
2023-03-26T19:02:29.310Z,96543.02
2023-03-26T19:04:57.617Z,96537.86
2023-03-26T19:07:27.690Z,96537.43
2023-03-26T19:10:00.867Z,96536.41
2023-03-26T19:12:36.028Z,96534.08
2023-03-26T19:15:08.611Z,96531.84
2023-03-26T19:17:48.604Z,96533.84
2023-03-26T19:20:24.106Z,96530.59
2023-03-26T19:22:52.171Z,96536.08
2023-03-26T19:25:31.516Z,96532.70
2023-03-26T19:28:02.610Z,96536.70
2023-03-26T19:30:33.902Z,96537.16
2023-03-26T19:33:17.763Z,96527.75
2023-03-26T19:36:05.583Z,96531.97
2023-03-26T19:38:53.062Z,96521.48
2023-03-26T19:41:28.283Z,96521.20
2023-03-26T19:44:01.449Z,96521.19
2023-03-26T19:46:34.154Z,96511.98
2023-03-26T19:49:04.887Z,96510.11
2023-03-26T19:51:38.509Z,96511.72
2023-03-26T19:54:15.586Z,96518.37
2023-03-26T19:56:44.065Z,96512.94
2023-03-26T19:59:14.672Z,96508.30
2023-03-26T20:01:42.952Z,96505.79
2023-03-26T20:04:13.087Z,96504.35
2023-03-26T20:06:44.147Z,96499.94
2023-03-26T20:09:13.893Z,96505.91
2023-03-26T20:11:42.050Z,96509.72
2023-03-26T20:14:17.355Z,96503.75
2023-03-26T20:16:47.118Z,96498.12
2023-03-26T20:19:15.476Z,96498.59
2023-03-26T20:21:44.457Z,96499.16
2023-03-26T20:24:16.341Z,96493.53
2023-03-26T20:26:45.803Z,96488.20
2023-03-26T20:29:14.902Z,96495.40
2023-03-26T20:31:43.790Z,96485.98
2023-03-26T20:34:16.680Z,96493.37
2023-03-26T20:36:45.832Z,96496.22
2023-03-26T20:39:14.349Z,96497.45
2023-03-26T20:41:46.244Z,96491.03
2023-03-26T20:44:18.541Z,96493.95
2023-03-26T20:46:48.294Z,96492.05
2023-03-26T20:49:17.163Z,96492.30
2023-03-26T20:51:46.218Z,96498.59
2023-03-26T20:54:21.687Z,96493.73
2023-03-26T20:56:50.203Z,96493.02
2023-03-26T20:59:25.689Z,96486.52
2023-03-26T21:01:54.218Z,96488.15
2023-03-26T21:04:22.341Z,96486.88
2023-03-26T21:06:51.880Z,96493.50
2023-03-26T21:09:24.676Z,96490.12
2023-03-26T21:12:00.844Z,96492.86
2023-03-26T21:14:41.949Z,96493.80
2023-03-26T21:17:16.845Z,96483.52
2023-03-26T21:19:45.666Z,96476.44
2023-03-26T21:22:39.923Z,96473.16
2023-03-26T21:25:34.537Z,96471.12
2023-03-26T21:28:35.764Z,96474.17
2023-03-26T21:30:58.833Z,96467.09
2023-03-26T21:33:27.968Z,96465.05
2023-03-26T21:35:56.747Z,96464.27
2023-03-26T21:38:25.520Z,96469.43
2023-03-26T21:40:58.840Z,96468.48
2023-03-26T21:43:25.689Z,96459.88
2023-03-26T21:45:54.580Z,96469.39
2023-03-26T21:48:23.307Z,96468.22
2023-03-26T21:50:51.593Z,96469.45
2023-03-26T21:53:21.561Z,96467.17
2023-03-26T21:55:55.416Z,96462.69
2023-03-26T21:58:52.679Z,96463.84
2023-03-26T22:01:31.771Z,96466.61
2023-03-26T22:04:11.156Z,96463.45
2023-03-26T22:06:47.486Z,96452.62
2023-03-26T22:09:18.516Z,96423.83
2023-03-26T22:11:45.821Z,96445.80
2023-03-26T22:14:13.872Z,96440.80
2023-03-26T22:16:41.658Z,96432.87
2023-03-26T22:19:10.332Z,96428.70
2023-03-26T22:21:38.351Z,96429.64
2023-03-26T22:24:07.022Z,96432.20
2023-03-26T22:26:37.084Z,96437.58
2023-03-26T22:29:07.091Z,96435.76
2023-03-26T22:31:40.256Z,96438.97
2023-03-26T22:34:08.670Z,96434.75
2023-03-26T22:36:38.387Z,96421.49
2023-03-26T22:39:06.577Z,96426.59
2023-03-26T22:41:34.320Z,96420.42
2023-03-26T22:44:18.557Z,96410.30
2023-03-26T22:46:32.322Z,96408.73
2023-03-26T22:48:59.994Z,96402.69
2023-03-26T22:51:29.204Z,96398.70
2023-03-26T22:53:57.367Z,96395.58
2023-03-26T22:56:25.199Z,96383.34
2023-03-26T22:58:53.016Z,96380.44
2023-03-26T23:01:24.368Z,96373.79
2023-03-26T23:03:52.164Z,96374.11
2023-03-26T23:06:20.970Z,96369.95
2023-03-26T23:08:49.208Z,96361.53
2023-03-26T23:11:20.969Z,96363.56
2023-03-26T23:13:49.452Z,96364.47
2023-03-26T23:16:17.782Z,96361.90
2023-03-26T23:18:46.147Z,96360.08
2023-03-26T23:21:17.779Z,96351.98
2023-03-26T23:23:46.400Z,96348.16
2023-03-26T23:26:15.113Z,96339.72
2023-03-26T23:28:43.081Z,96338.94
2023-03-26T23:31:12.628Z,96339.72
2023-03-26T23:33:43.763Z,96333.36
2023-03-26T23:36:16.680Z,96334.17
2023-03-26T23:38:49.229Z,96327.03
2023-03-26T23:41:21.128Z,96322.25
2023-03-26T23:43:54.696Z,96329.52
2023-03-26T23:46:23.434Z,96329.28
2023-03-26T23:48:52.163Z,96329.28
2023-03-26T23:51:21.137Z,96330.62
2023-03-26T23:53:49.056Z,96316.53
2023-03-26T23:56:17.552Z,96313.61
2023-03-26T23:58:45.301Z,96312.83
